KJWN

John C Tune Airport

Nashville, Tennessee, USA
METAR KJWN 221335Z AUTO 00000KT 10SM FEW004 03/03 A3030 RMK A01
Observed Flight Rules
Oct-22 @ 13:35 UTC (46 minutes ago) Visual Flight Rules
Visibility Clouds
10 miles
  • Few at 400' AGL
Temperatures Readings
Current 3°C / 37°F
Dewpoint 3°C / 37°F
Humidity 100%
Altimeter 30.3" Hg
Pressure 1026 hPa
Elevation 151
METAR KJWN 221335Z AUTO 00000KT 10SM FEW004 03/03 A3030 RMK A01
Observed Flight Rules
Oct-22 @ 13:35 UTC
(46 minutes ago)
VFR
Clouds
  • Few at 400' AGL
Temperature Dewpoint
3°C / 37°F 3°C / 37°F
Humidity Altimeter Pressure
100% 30.3" Hg 1026 hPa